Doyle, CA

4:28 AM PDT on September 21, 2014 (GMT -0700)
DOYLE (BLM) | Change Station
CLOSE
Current Station
Personal Weather Station
Location: Doyle, CA
Elevation: 4320 ft
Nearby Weather Stations

Elev 4320 ft 40.02 °N, 120.11 °W | Updated 12 minutes ago

Mostly Cloudy
Mostly Cloudy
70.0 °F
Feels Like 70.0 °F
N
4.0
Wind Variable Wind from ESE

Today
High -- | Low -- °F
--% Chance of Precip.
Yesterday
High -- | Low -- °F
Precip. -- in
6:47 AM 6:59 PM
Waning Crescent, 7% visible
Pressure 30.11 in
Visibility 10.0 miles
Clouds Few 9000 ft
Dew Point 15 °F
Humidity 12%
Rainfall -999.00 in
Snow Depth 1 in , 3 in , 0 in
UV 0 out of 12
Pollen 6.20 out of 12
Air Quality Not available.
Flu Activity Not available.
METAR KRTS 211115Z AUTO 08006KT 10SM FEW090 17/04 A3011 RMK AO2

More Conditions Fewer Conditions

Pressure 30.11 in
Visibility 10.0 miles
Clouds Few 9000 ft
Dew Point 15 °F
Humidity 12%
Rainfall -999.00 in
Snow Depth 1 in , 3 in , 0 in
UV 0 out of 12
Pollen 6.20 out of 12
Air Quality Not available.
Flu Activity Not available.
METAR KRTS 211115Z AUTO 08006KT 10SM FEW090 17/04 A3011 RMK AO2

More Conditions Fewer Conditions

10-Day Weather Forecast

Almanac

Astronomy

Sep. 21, 2014 Rise Set
Actual Time 6:47 AM PDT 6:59 PM PDT
Civil Twilight 6:20 AM PDT 7:26 PM PDT
Nautical Twilight 5:48 AM PDT 7:57 PM PDT
Astronomical Twilight 5:16 AM PDT 8:29 PM PDT
Moon 4:25 AM PDT 5:37 PM PDT
Length of Visible Light 13h 05m
Length of Day
12h 11m
Tomorrow will be 2m 37s shorter.
Waning Crescent, 7% of the Moon is Illuminated
Today
Waning Crescent
Sep 24
New
Oct 1
First Quarter
Oct 8
Full
Oct 15
Last Quarter

Today's Extremes

State Highs State Lows

Community

WunderPhotos

Upload Photos

1,755,122 photos uploaded!

Nearby

Snow Depth

Station Depth Elevation
Leavitt Lake 1 in 9400 ft
CSS Lab 3 in 6900 ft
Heavenly Valley 0 in 8850 ft
Adin Mountain 0 in 6200 ft
Ebbetts Pass 0 in 8700 ft

Earthquake Activity

City Distance Mag. Time & Date
Lakeview, Oregon 128 miles 2.5 2:45 AM PDT
2014-09-20
Lakeview, Oregon 129 miles 2.5 10:12 PM PDT
2014-09-19
Lakeview, Oregon 128 miles 2.9 7:40 PM PDT
2014-09-19
Lakeview, Oregon 130 miles 3.0 10:14 AM PDT
2014-09-17
Minimum magnitude displayed is 2.5.

Coastal Water Temperatures

Place Temperature
No Stations Reporting

Nearby Weather Stations